createdAt,value
2019-01-10T00:05:02.099Z,13.92
2019-01-10T00:10:11.022Z,13.47
2019-01-10T00:15:20.052Z,12.48
2019-01-10T00:20:28.960Z,13.22
2019-01-10T00:25:37.882Z,10.80
2019-01-10T00:30:46.870Z,15.80
2019-01-10T00:35:55.803Z,12.85
2019-01-10T00:41:04.828Z,13.90
2019-01-10T00:46:13.731Z,11.95
2019-01-10T00:51:22.674Z,16.19
2019-01-10T00:56:31.570Z,12.31
2019-01-10T01:01:40.587Z,11.49
2019-01-10T01:06:49.490Z,11.23
2019-01-10T01:11:58.414Z,12.78
2019-01-10T01:17:07.322Z,13.14
2019-01-10T01:22:16.303Z,10.59
2019-01-10T01:27:25.209Z,12.91
2019-01-10T01:32:34.195Z,10.98
2019-01-10T01:37:43.107Z,11.58
2019-01-10T01:42:52.083Z,10.06
2019-01-10T01:48:01.006Z,7.96
2019-01-10T01:53:09.950Z,13.30
2019-01-10T01:58:18.880Z,9.78
2019-01-10T02:03:27.878Z,15.57
2019-01-10T02:08:36.798Z,14.87
2019-01-10T02:13:45.802Z,9.45
2019-01-10T02:18:54.722Z,9.36
2019-01-10T02:24:03.731Z,9.74
2019-01-10T02:29:12.649Z,11.21
2019-01-10T02:34:21.622Z,10.94
2019-01-10T02:39:30.570Z,11.08
2019-01-10T02:44:39.570Z,10.89
2019-01-10T02:49:48.507Z,12.71
2019-01-10T02:54:57.451Z,11.31
2019-01-10T03:00:06.414Z,10.57
2019-01-10T03:05:15.391Z,10.20
2019-01-10T03:10:24.323Z,11.18
2019-01-10T03:15:33.306Z,10.29
2019-01-10T03:20:42.227Z,14.37
2019-01-10T03:25:51.178Z,11.26
2019-01-10T03:31:00.087Z,14.90
2019-01-10T03:36:09.028Z,11.17
2019-01-10T03:41:17.982Z,10.08
2019-01-10T03:46:26.944Z,9.96
2019-01-10T03:51:35.884Z,11.40
2019-01-10T03:56:44.858Z,11.29
2019-01-10T04:01:53.763Z,9.61
2019-01-10T04:07:02.714Z,9.38
2019-01-10T04:12:11.659Z,11.33
2019-01-10T04:17:20.807Z,11.32
2019-01-10T04:22:29.766Z,11.70
2019-01-10T04:27:38.736Z,10.08
2019-01-10T04:32:47.651Z,9.16
2019-01-10T04:37:56.594Z,11.93
2019-01-10T04:43:05.554Z,10.11
2019-01-10T04:48:14.601Z,6.48
2019-01-10T04:53:23.556Z,6.54
2019-01-10T04:58:32.484Z,7.84
2019-01-10T05:03:41.398Z,8.15
2019-01-10T05:08:50.374Z,7.33
2019-01-10T05:24:05.764Z,8.92
2019-01-10T05:29:14.707Z,9.10
2019-01-10T05:34:23.666Z,7.16
2019-01-10T05:39:32.618Z,8.87
2019-01-10T05:44:41.601Z,7.96
2019-01-10T05:49:50.555Z,6.74
2019-01-10T05:54:59.510Z,10.43
2019-01-10T06:00:08.450Z,9.20
2019-01-10T06:05:17.483Z,10.36
2019-01-10T06:10:26.397Z,8.43
2019-01-10T06:15:35.434Z,8.39
2019-01-10T06:20:44.391Z,11.05
2019-01-10T06:25:53.373Z,10.28
2019-01-10T06:31:02.288Z,12.40
2019-01-10T06:36:11.314Z,11.69
2019-01-10T06:41:20.247Z,11.79
2019-01-10T06:46:31.190Z,13.04
2019-01-10T06:51:37.743Z,6.31
2019-01-10T06:56:46.714Z,10.60
2019-01-10T07:01:55.675Z,14.77
2019-01-10T07:07:04.673Z,12.68
2019-01-10T07:12:13.610Z,14.27
2019-01-10T07:17:22.601Z,14.22
2019-01-10T07:22:31.562Z,12.28
2019-01-10T07:27:40.531Z,12.87
2019-01-10T07:32:49.442Z,9.28
2019-01-10T07:37:58.454Z,10.55
2019-01-10T07:43:07.450Z,8.26
2019-01-10T07:48:16.496Z,9.80
2019-01-10T07:53:25.443Z,13.08
2019-01-10T07:58:34.438Z,12.18
2019-01-10T08:03:43.398Z,12.02
2019-01-10T08:08:52.498Z,14.25
2019-01-10T08:14:01.445Z,8.74
2019-01-10T08:19:10.450Z,11.95
2019-01-10T08:24:19.396Z,12.73
2019-01-10T08:29:28.410Z,13.20
2019-01-10T08:34:37.366Z,11.79
2019-01-10T08:39:46.361Z,11.34
2019-01-10T08:44:55.416Z,12.33
2019-01-10T08:50:04.299Z,13.23
2019-01-10T08:55:13.215Z,10.05
2019-01-10T09:00:22.178Z,15.22
2019-01-10T09:05:31.135Z,13.88
2019-01-10T09:10:40.522Z,12.45
2019-01-10T09:15:48.655Z,14.52
2019-01-10T09:21:04.268Z,10.67
2019-01-10T09:26:06.103Z,10.38
2019-01-10T09:31:15.142Z,11.80
2019-01-10T09:36:24.103Z,12.08
2019-01-10T09:41:33.086Z,12.81
2019-01-10T09:46:42.057Z,14.10
2019-01-10T09:51:51.063Z,14.50
2019-01-10T09:56:59.994Z,15.31
2019-01-10T10:02:09.026Z,12.41
2019-01-10T10:07:17.982Z,12.49
2019-01-10T10:12:26.994Z,12.57
2019-01-10T10:17:35.948Z,12.62
2019-01-10T10:22:44.906Z,12.24
2019-01-10T10:27:53.833Z,14.49
2019-01-10T10:33:02.835Z,12.18
2019-01-10T10:38:11.823Z,12.94
2019-01-10T10:43:20.791Z,14.40
2019-01-10T10:48:29.728Z,11.72
2019-01-10T10:53:38.811Z,14.79
2019-01-10T10:58:47.767Z,12.12
2019-01-10T11:03:56.755Z,13.35
2019-01-10T11:09:09.333Z,13.11
2019-01-10T11:14:17.014Z,10.45
2019-01-10T11:19:15.954Z,11.24
2019-01-10T11:24:24.926Z,17.22
2019-01-10T11:29:33.854Z,13.59
2019-01-10T11:34:42.862Z,14.79
2019-01-10T11:39:51.893Z,11.52
2019-01-10T11:45:00.846Z,11.79
2019-01-10T11:50:09.782Z,11.46
2019-01-10T11:55:18.738Z,15.27
2019-01-10T12:00:27.683Z,11.96
2019-01-10T12:05:36.610Z,11.32
2019-01-10T12:10:45.535Z,11.13
2019-01-10T12:15:54.482Z,10.32
2019-01-10T12:21:03.426Z,13.89
2019-01-10T12:26:12.411Z,16.67
2019-01-10T12:31:21.366Z,10.99
2019-01-10T12:36:30.310Z,12.49
2019-01-10T12:41:39.236Z,10.58
2019-01-10T12:46:48.250Z,10.86
2019-01-10T12:51:57.214Z,11.25
2019-01-10T12:57:06.197Z,12.21
2019-01-10T13:02:15.154Z,9.78
2019-01-10T13:07:24.221Z,13.39
2019-01-10T13:12:33.142Z,13.80
2019-01-10T13:17:42.130Z,9.58
2019-01-10T13:22:51.067Z,10.44
2019-01-10T13:28:00.013Z,9.80
2019-01-10T13:33:09.023Z,10.33
2019-01-10T13:38:17.974Z,11.50
2019-01-10T13:43:27.006Z,11.50
2019-01-10T13:48:35.930Z,8.53
2019-01-10T13:53:44.895Z,8.65
2019-01-10T13:58:53.915Z,9.28
2019-01-10T14:04:02.858Z,10.24
2019-01-10T14:09:11.928Z,9.99
2019-01-10T14:14:20.846Z,8.44
2019-01-10T14:19:29.806Z,10.42
2019-01-10T14:24:38.746Z,9.89
2019-01-10T14:29:47.702Z,9.75
2019-01-10T14:34:56.642Z,9.05
2019-01-10T14:40:05.594Z,10.09
2019-01-10T14:45:14.600Z,8.62
2019-01-10T14:50:23.534Z,9.21
2019-01-10T14:55:32.522Z,9.06
2019-01-10T15:00:41.469Z,5.87
2019-01-10T15:05:50.428Z,6.33
2019-01-10T15:10:59.390Z,4.91
2019-01-10T15:16:08.455Z,4.97
2019-01-10T15:21:17.386Z,3.26
2019-01-10T15:26:26.371Z,4.00
2019-01-10T15:31:35.290Z,2.89
2019-01-10T15:36:44.254Z,5.77
2019-01-10T15:41:53.183Z,4.58
2019-01-10T15:47:02.194Z,4.26
2019-01-10T15:52:11.130Z,4.68
2019-01-10T15:57:20.114Z,5.84
2019-01-10T16:02:29.041Z,4.46
2019-01-10T16:07:38.077Z,7.14
2019-01-10T16:12:47.018Z,6.78
2019-01-10T16:17:56.063Z,5.01
2019-01-10T16:23:05.009Z,5.46
2019-01-10T16:28:14.058Z,6.56
2019-01-10T16:33:22.986Z,4.47
2019-01-10T16:38:31.933Z,6.08
2019-01-10T16:43:40.862Z,5.96
2019-01-10T16:48:49.885Z,5.85
2019-01-10T16:53:58.806Z,5.72
2019-01-10T16:59:08.111Z,6.60
2019-01-10T17:04:17.059Z,6.47
2019-01-10T17:09:26.014Z,6.17
2019-01-10T17:14:35.071Z,6.36
2019-01-10T17:19:44.020Z,6.79
2019-01-10T17:24:52.945Z,7.88
2019-01-10T17:30:01.886Z,7.08
2019-01-10T17:35:10.910Z,9.55
2019-01-10T17:40:19.860Z,7.58
2019-01-10T17:45:28.810Z,10.82
2019-01-10T17:50:37.764Z,8.26
2019-01-10T17:55:46.790Z,10.75
2019-01-10T18:00:55.739Z,10.48
2019-01-10T18:06:04.742Z,10.32
2019-01-10T18:11:13.678Z,8.97
2019-01-10T18:16:22.674Z,9.69
2019-01-10T18:21:31.623Z,9.42
2019-01-10T18:26:40.627Z,10.14
2019-01-10T18:31:49.560Z,9.12
2019-01-10T18:36:58.591Z,10.76
2019-01-10T18:42:07.559Z,11.74
2019-01-10T18:47:16.529Z,9.84
2019-01-10T18:52:25.567Z,9.96
2019-01-10T18:57:34.506Z,11.38
2019-01-10T19:02:43.463Z,9.39
2019-01-10T19:07:52.402Z,8.23
2019-01-10T19:13:01.356Z,9.46
2019-01-10T19:18:10.310Z,9.30
2019-01-10T19:23:19.337Z,7.64
2019-01-10T19:28:28.261Z,10.84
2019-01-10T19:33:37.254Z,10.45
2019-01-10T19:38:46.177Z,9.29
2019-01-10T19:43:55.194Z,10.60
2019-01-10T19:49:04.173Z,12.45
2019-01-10T19:54:13.127Z,12.63
2019-01-10T19:59:22.055Z,11.26
2019-01-10T20:04:31.092Z,11.69
2019-01-10T20:09:40.026Z,13.06
2019-01-10T20:14:49.042Z,13.41
2019-01-10T20:19:57.990Z,12.37
2019-01-10T20:25:07.062Z,13.18
2019-01-10T20:30:16.594Z,10.97
2019-01-10T20:35:24.474Z,12.89
2019-01-10T20:40:33.467Z,14.69
2019-01-10T20:45:42.390Z,12.49
2019-01-10T20:50:51.806Z,13.29
2019-01-10T20:55:59.879Z,12.69
2019-01-10T21:01:08.891Z,17.32
2019-01-10T21:06:17.867Z,16.55
2019-01-10T21:11:26.838Z,17.75
2019-01-10T21:16:35.810Z,18.75
2019-01-10T21:21:44.731Z,23.57
2019-01-10T21:26:53.830Z,23.96
2019-01-10T21:32:02.786Z,23.43
2019-01-10T21:37:11.750Z,25.48
2019-01-10T21:42:20.684Z,29.47
2019-01-10T21:47:29.630Z,31.96
2019-01-10T21:52:38.558Z,34.10
2019-01-10T21:57:47.542Z,34.73
2019-01-10T22:02:56.467Z,34.31
2019-01-10T22:08:05.494Z,39.83
2019-01-10T22:13:14.483Z,41.08
2019-01-10T22:18:23.430Z,37.16
2019-01-10T22:23:32.355Z,41.97
2019-01-10T22:28:41.307Z,41.43
2019-01-10T22:33:50.246Z,41.79
2019-01-10T22:38:59.206Z,43.83
2019-01-10T22:44:08.146Z,45.05
2019-01-10T22:49:17.150Z,42.07
2019-01-10T22:54:26.114Z,44.72
2019-01-10T22:59:35.114Z,45.28
2019-01-10T23:04:44.026Z,48.03
2019-01-10T23:09:53.046Z,46.15
2019-01-10T23:15:01.996Z,53.47
2019-01-10T23:20:11.002Z,51.70
2019-01-10T23:25:19.981Z,53.75
2019-01-10T23:30:28.994Z,58.41
2019-01-10T23:35:37.910Z,59.99
2019-01-10T23:40:46.930Z,65.31
2019-01-10T23:45:55.876Z,69.08
2019-01-10T23:51:04.862Z,70.03
2019-01-10T23:56:13.779Z,69.80
